createdAt,value
2022-12-28T00:01:27.991Z,63.29
2022-12-28T00:03:55.618Z,62.94
2022-12-28T00:06:24.557Z,62.99
2022-12-28T00:08:56.526Z,63.43
2022-12-28T00:11:28.009Z,63.56
2022-12-28T00:14:01.701Z,63.62
2022-12-28T00:16:31.441Z,63.65
2022-12-28T00:19:00.513Z,63.87
2022-12-28T00:21:28.001Z,63.87
2022-12-28T00:23:58.018Z,63.96
2022-12-28T00:26:26.752Z,64.24
2022-12-28T00:28:56.921Z,63.98
2022-12-28T00:31:28.480Z,64.26
2022-12-28T00:33:55.116Z,64.43
2022-12-28T00:36:22.070Z,64.38
2022-12-28T00:38:48.801Z,64.36
2022-12-28T00:41:15.453Z,64.69
2022-12-28T00:43:42.159Z,64.74
2022-12-28T00:46:09.072Z,64.78
2022-12-28T00:48:35.757Z,64.75
2022-12-28T00:51:11.351Z,64.76
2022-12-28T00:53:38.012Z,65.00
2022-12-28T00:56:09.997Z,64.83
2022-12-28T00:58:36.813Z,65.16
2022-12-28T01:01:04.782Z,65.34
2022-12-28T01:03:31.513Z,65.27
2022-12-28T01:05:58.353Z,65.25
2022-12-28T01:08:25.143Z,65.36
2022-12-28T01:10:51.783Z,65.52
2022-12-28T01:13:18.401Z,65.57
2022-12-28T01:15:45.089Z,65.77
2022-12-28T01:18:12.687Z,65.88
2022-12-28T01:20:40.749Z,65.75
2022-12-28T01:23:07.549Z,65.73
2022-12-28T01:25:34.557Z,65.95
2022-12-28T01:28:01.430Z,66.18
2022-12-28T01:30:30.357Z,65.92
2022-12-28T01:32:59.774Z,66.36
2022-12-28T01:35:26.611Z,66.36
2022-12-28T01:37:53.382Z,66.15
2022-12-28T01:40:20.236Z,66.11
2022-12-28T01:42:46.864Z,66.36
2022-12-28T01:45:20.204Z,66.31
2022-12-28T01:47:49.729Z,66.26
2022-12-28T01:50:25.324Z,66.16
2022-12-28T01:53:00.334Z,66.25
2022-12-28T01:55:34.946Z,66.58
2022-12-28T01:58:08.822Z,66.53
2022-12-28T02:00:36.064Z,66.44
2022-12-28T02:03:05.234Z,66.47
2022-12-28T02:05:36.893Z,66.60
2022-12-28T02:08:11.835Z,66.65
2022-12-28T02:10:45.181Z,66.76
2022-12-28T02:13:14.902Z,66.60
2022-12-28T02:15:41.685Z,66.73
2022-12-28T02:18:09.374Z,66.67
2022-12-28T02:20:50.682Z,66.58
2022-12-28T02:23:50.813Z,66.49
2022-12-28T02:26:44.772Z,66.75
2022-12-28T02:29:14.848Z,66.65
2022-12-28T02:31:47.217Z,66.56
2022-12-28T02:34:30.571Z,66.70
2022-12-28T02:37:10.160Z,66.73
2022-12-28T02:39:58.843Z,66.68
2022-12-28T02:42:28.639Z,67.01
2022-12-28T02:45:13.818Z,66.75
2022-12-28T02:48:07.025Z,66.95
2022-12-28T02:50:54.120Z,66.83
2022-12-28T02:54:00.287Z,66.74
2022-12-28T02:56:55.765Z,66.83
2022-12-28T03:00:04.684Z,66.95
2022-12-28T03:02:41.271Z,66.79
2022-12-28T03:05:11.199Z,67.27
2022-12-28T03:08:21.116Z,67.24
2022-12-28T03:10:58.525Z,67.64
2022-12-28T03:13:43.277Z,67.36
2022-12-28T03:16:31.785Z,67.45
2022-12-28T03:19:26.485Z,67.45
2022-12-28T03:22:15.590Z,67.46
2022-12-28T03:25:04.278Z,67.54
2022-12-28T03:27:52.016Z,67.75
2022-12-28T03:30:39.918Z,67.92
2022-12-28T03:33:09.029Z,67.77
2022-12-28T03:35:58.813Z,68.34
2022-12-28T03:38:36.830Z,68.27
2022-12-28T03:41:16.004Z,68.57
2022-12-28T03:43:49.808Z,68.24
2022-12-28T03:46:16.402Z,68.18
2022-12-28T03:48:45.248Z,68.59
2022-12-28T03:51:14.323Z,68.24
2022-12-28T03:53:45.367Z,68.25
2022-12-28T03:56:14.914Z,68.14
2022-12-28T03:58:41.615Z,68.25
2022-12-28T04:01:08.398Z,68.08
2022-12-28T04:03:35.553Z,68.39
2022-12-28T04:06:02.209Z,68.32
2022-12-28T04:08:28.896Z,68.18
2022-12-28T04:10:55.664Z,68.04
2022-12-28T04:13:22.470Z,68.25
2022-12-28T04:16:00.194Z,68.53
2022-12-28T04:18:27.388Z,68.51
2022-12-28T04:20:54.413Z,68.91
2022-12-28T04:23:21.728Z,68.91
2022-12-28T04:26:06.028Z,69.01
2022-12-28T04:28:33.789Z,68.85
2022-12-28T04:31:02.401Z,69.13
2022-12-28T04:33:31.816Z,69.12
2022-12-28T04:36:09.435Z,68.86
2022-12-28T04:38:36.947Z,69.23
2022-12-28T04:41:04.863Z,68.94
2022-12-28T04:43:31.841Z,68.98
2022-12-28T04:46:00.324Z,68.81
2022-12-28T04:48:27.961Z,68.84
2022-12-28T04:50:55.095Z,69.19
2022-12-28T04:53:22.124Z,69.07
2022-12-28T04:55:49.178Z,69.32
2022-12-28T04:58:16.673Z,69.28
2022-12-28T05:00:43.622Z,69.39
2022-12-28T05:03:10.269Z,69.42
2022-12-28T05:05:38.046Z,69.10
2022-12-28T05:08:05.985Z,69.39
2022-12-28T05:10:32.598Z,69.38
2022-12-28T05:12:59.260Z,69.40
2022-12-28T05:15:25.867Z,69.25
2022-12-28T05:17:52.601Z,69.07
2022-12-28T05:20:20.609Z,69.43
2022-12-28T05:22:47.328Z,69.14
2022-12-28T05:25:14.114Z,69.25
2022-12-28T05:27:40.868Z,69.33
2022-12-28T05:30:08.194Z,69.51
2022-12-28T05:32:34.786Z,69.37
2022-12-28T05:35:01.597Z,69.54
2022-12-28T05:37:28.228Z,69.50
2022-12-28T05:39:54.911Z,69.51
2022-12-28T05:42:21.484Z,69.30
2022-12-28T05:44:48.074Z,69.44
2022-12-28T05:47:14.655Z,69.30
2022-12-28T05:49:41.294Z,69.61
2022-12-28T05:52:07.905Z,69.52
2022-12-28T05:54:34.585Z,69.58
2022-12-28T05:57:01.355Z,69.24
2022-12-28T05:59:27.983Z,69.32
2022-12-28T06:01:54.929Z,69.37
2022-12-28T06:04:21.687Z,69.71
2022-12-28T06:06:49.083Z,69.51
2022-12-28T06:09:15.952Z,69.47
2022-12-28T06:11:43.261Z,69.47
2022-12-28T06:14:09.863Z,69.46
2022-12-28T06:16:40.081Z,69.60
2022-12-28T06:19:08.541Z,69.57
2022-12-28T06:21:36.871Z,69.63
2022-12-28T06:24:05.293Z,69.59
2022-12-28T06:26:33.919Z,69.52
2022-12-28T06:29:02.116Z,69.53
2022-12-28T06:31:32.077Z,69.61
2022-12-28T06:34:01.075Z,69.83
2022-12-28T06:36:36.637Z,69.62
2022-12-28T06:39:05.579Z,69.94
2022-12-28T06:41:32.676Z,70.00
2022-12-28T06:43:59.942Z,70.06
2022-12-28T06:46:29.178Z,70.09
2022-12-28T06:48:56.422Z,69.87
2022-12-28T06:51:27.393Z,70.16
2022-12-28T06:53:55.151Z,70.10
2022-12-28T06:56:24.380Z,70.12
2022-12-28T06:58:56.903Z,69.97
2022-12-28T07:01:33.408Z,69.91
2022-12-28T07:04:02.466Z,70.24
2022-12-28T07:06:29.782Z,70.09
2022-12-28T07:09:05.301Z,70.16
2022-12-28T07:11:32.101Z,70.31
2022-12-28T07:13:58.952Z,70.32
2022-12-28T07:16:27.332Z,70.49
2022-12-28T07:18:54.251Z,70.50
2022-12-28T07:21:24.211Z,70.48
2022-12-28T07:23:52.586Z,70.57
2022-12-28T07:26:23.464Z,70.78
2022-12-28T07:28:52.680Z,70.78
2022-12-28T07:31:24.686Z,70.59
2022-12-28T07:33:53.253Z,71.04
2022-12-28T07:36:21.978Z,70.93
2022-12-28T07:38:49.345Z,70.98
2022-12-28T07:41:18.588Z,70.91
2022-12-28T07:43:45.248Z,71.04
2022-12-28T07:46:18.347Z,71.29
2022-12-28T07:48:45.618Z,71.02
2022-12-28T07:51:18.376Z,71.06
2022-12-28T07:53:47.331Z,71.43
2022-12-28T07:56:14.945Z,71.39
2022-12-28T08:01:09.245Z,71.61
2022-12-28T08:03:37.270Z,71.54
2022-12-28T08:06:15.244Z,71.84
2022-12-28T08:08:44.266Z,71.69
2022-12-28T08:11:14.348Z,71.96
2022-12-28T08:13:43.738Z,71.83
2022-12-28T08:16:12.859Z,72.12
2022-12-28T08:18:40.705Z,72.04
2022-12-28T08:21:11.313Z,72.31
2022-12-28T08:23:38.132Z,72.23
2022-12-28T08:26:25.276Z,72.49
2022-12-28T08:28:54.718Z,72.40
2022-12-28T08:31:24.432Z,72.23
2022-12-28T08:33:51.503Z,72.43
2022-12-28T08:36:18.264Z,72.63
2022-12-28T08:38:45.913Z,72.48
2022-12-28T08:41:15.608Z,72.74
2022-12-28T08:43:42.672Z,72.51
2022-12-28T08:46:18.824Z,72.77
2022-12-28T08:48:47.255Z,72.67
2022-12-28T08:51:18.127Z,72.77
2022-12-28T08:53:45.410Z,72.57
2022-12-28T08:56:27.753Z,72.68
2022-12-28T08:58:55.680Z,72.75
2022-12-28T09:01:40.730Z,72.81
2022-12-28T09:04:14.709Z,72.60
2022-12-28T09:06:41.751Z,72.33
2022-12-28T09:09:12.615Z,72.09
2022-12-28T09:11:40.230Z,71.87
2022-12-28T09:14:09.449Z,72.04
2022-12-28T09:16:37.494Z,71.72
2022-12-28T09:19:06.066Z,71.62
2022-12-28T09:21:35.816Z,71.45
2022-12-28T09:24:02.801Z,70.80
2022-12-28T09:26:36.459Z,71.08
2022-12-28T09:29:06.413Z,70.68
2022-12-28T09:31:36.996Z,70.39
2022-12-28T09:36:52.299Z,70.20
2022-12-28T09:39:20.901Z,69.75
2022-12-28T09:42:05.254Z,69.41
2022-12-28T09:44:44.349Z,69.12
2022-12-28T09:47:19.576Z,68.62
2022-12-28T09:49:52.294Z,68.46
2022-12-28T09:52:27.480Z,68.23
2022-12-28T09:54:55.120Z,68.12
2022-12-28T09:57:23.867Z,67.49
2022-12-28T09:59:53.086Z,67.44
2022-12-28T10:02:27.696Z,66.86
2022-12-28T10:04:54.691Z,66.64
2022-12-28T10:07:21.745Z,66.48
2022-12-28T10:09:48.892Z,66.17
2022-12-28T10:12:19.863Z,65.49
2022-12-28T10:14:47.800Z,65.14
2022-12-28T10:17:17.628Z,64.71
2022-12-28T10:19:46.715Z,64.51
2022-12-28T10:22:22.605Z,64.22
2022-12-28T10:24:49.953Z,63.71
2022-12-28T10:27:25.702Z,63.09
2022-12-28T10:29:53.686Z,62.89
2022-12-28T10:32:20.762Z,62.55
2022-12-28T10:34:58.671Z,62.13
2022-12-28T10:37:28.970Z,61.99
2022-12-28T10:39:59.993Z,61.36
2022-12-28T10:42:40.356Z,61.20
2022-12-28T10:45:20.366Z,61.05
2022-12-28T10:47:50.904Z,60.77
2022-12-28T10:50:42.273Z,60.75
2022-12-28T10:53:26.831Z,60.53
2022-12-28T10:56:17.420Z,60.61
2022-12-28T10:58:46.594Z,60.24
2022-12-28T11:01:13.562Z,60.23
2022-12-28T11:03:57.107Z,59.64
2022-12-28T11:06:50.677Z,59.70
2022-12-28T11:09:22.673Z,59.40
2022-12-28T11:11:52.588Z,59.35
2022-12-28T11:14:31.605Z,59.20
2022-12-28T11:16:58.428Z,58.78
2022-12-28T11:19:26.052Z,58.72
2022-12-28T11:21:53.617Z,58.31
2022-12-28T11:24:25.718Z,58.05
2022-12-28T11:26:52.692Z,57.69
2022-12-28T11:29:19.783Z,57.53
2022-12-28T11:31:58.368Z,57.41
2022-12-28T11:34:27.869Z,57.05
2022-12-28T11:36:56.625Z,57.14
2022-12-28T11:39:26.316Z,56.73
2022-12-28T11:42:19.508Z,56.39
2022-12-28T11:44:40.840Z,56.11
2022-12-28T11:47:16.356Z,55.67
2022-12-28T11:49:45.281Z,55.53
2022-12-28T11:52:17.875Z,55.54
2022-12-28T11:54:50.680Z,55.41
2022-12-28T11:57:40.201Z,55.33
2022-12-28T12:00:25.998Z,55.28
2022-12-28T12:03:01.291Z,54.73
2022-12-28T12:05:39.991Z,54.63
2022-12-28T12:08:12.592Z,54.57
2022-12-28T12:10:41.800Z,54.26
2022-12-28T12:13:23.808Z,54.12
2022-12-28T12:15:52.325Z,54.09
2022-12-28T12:18:22.885Z,53.84
2022-12-28T12:20:54.863Z,53.80
2022-12-28T12:23:40.566Z,53.60
2022-12-28T12:26:19.102Z,53.38
2022-12-28T12:28:48.594Z,53.20
2022-12-28T12:31:37.494Z,53.11
2022-12-28T12:34:22.164Z,53.00
2022-12-28T12:36:59.336Z,53.17
2022-12-28T12:39:45.758Z,53.12
2022-12-28T12:42:43.108Z,53.06
2022-12-28T12:45:24.844Z,52.88
2022-12-28T12:48:07.068Z,52.91
2022-12-28T12:50:58.675Z,52.84
2022-12-28T12:53:48.662Z,52.68
2022-12-28T12:57:00.262Z,52.51
2022-12-28T12:59:26.979Z,52.56
2022-12-28T13:02:11.669Z,52.48
2022-12-28T13:04:42.226Z,52.33
2022-12-28T13:07:26.153Z,52.53
2022-12-28T13:09:56.525Z,52.56
2022-12-28T13:12:24.253Z,52.56
2022-12-28T13:14:58.221Z,52.57
2022-12-28T13:17:26.341Z,52.72
2022-12-28T13:20:08.891Z,52.60
2022-12-28T13:22:35.666Z,52.55
2022-12-28T13:25:02.282Z,52.61
2022-12-28T13:27:36.168Z,52.54
2022-12-28T13:30:04.420Z,52.69
2022-12-28T13:32:38.343Z,52.66
2022-12-28T13:35:17.754Z,52.63
2022-12-28T13:38:02.903Z,52.68
2022-12-28T13:40:31.935Z,52.92
2022-12-28T13:43:29.674Z,52.82
2022-12-28T13:46:07.975Z,52.87
2022-12-28T13:48:40.373Z,53.26
2022-12-28T13:51:14.283Z,53.25
2022-12-28T13:53:44.593Z,53.17
2022-12-28T13:56:14.646Z,53.47
2022-12-28T13:59:04.675Z,53.71
2022-12-28T14:01:36.676Z,53.67
2022-12-28T14:04:50.437Z,53.92
2022-12-28T14:06:57.200Z,54.07
2022-12-28T14:09:24.342Z,54.33
2022-12-28T14:11:51.489Z,54.53
2022-12-28T14:14:18.660Z,54.56
2022-12-28T14:16:45.965Z,54.75
2022-12-28T14:19:13.081Z,55.07
2022-12-28T14:21:42.985Z,55.42
2022-12-28T14:24:15.540Z,55.49
2022-12-28T14:27:00.379Z,55.72
2022-12-28T14:29:34.835Z,55.95
2022-12-28T14:32:04.771Z,56.12
2022-12-28T14:34:35.130Z,56.25
2022-12-28T14:37:02.307Z,56.19
2022-12-28T14:39:34.983Z,56.49
2022-12-28T14:42:04.443Z,56.78
2022-12-28T14:44:34.077Z,57.18
2022-12-28T14:47:00.821Z,57.14
2022-12-28T14:49:30.366Z,57.29
2022-12-28T14:52:16.866Z,57.81
2022-12-28T14:54:45.397Z,57.54
2022-12-28T14:57:22.587Z,57.62
2022-12-28T14:59:58.408Z,58.02
2022-12-28T15:02:34.228Z,58.40
2022-12-28T15:05:01.956Z,58.57
2022-12-28T15:07:31.548Z,58.73
2022-12-28T15:09:58.354Z,58.88
2022-12-28T15:12:25.064Z,59.54
2022-12-28T15:14:51.762Z,59.45
2022-12-28T15:17:18.894Z,59.59
2022-12-28T15:19:46.274Z,59.80
2022-12-28T15:22:13.419Z,59.86
2022-12-28T15:24:41.851Z,59.90
2022-12-28T15:27:08.657Z,60.07
2022-12-28T15:32:22.286Z,60.63
2022-12-28T15:34:49.041Z,60.78
2022-12-28T15:37:15.701Z,60.80
2022-12-28T15:39:42.301Z,60.62
2022-12-28T15:42:10.663Z,61.17
2022-12-28T15:44:37.505Z,61.11
2022-12-28T15:47:04.369Z,61.17
2022-12-28T15:49:31.007Z,61.04
2022-12-28T15:51:57.691Z,61.27
2022-12-28T15:54:24.756Z,61.20
2022-12-28T15:56:53.721Z,61.15
2022-12-28T15:59:20.841Z,61.64
2022-12-28T16:01:48.306Z,61.92
2022-12-28T16:04:15.521Z,61.86
2022-12-28T16:06:44.934Z,61.78
2022-12-28T16:09:13.101Z,62.02
2022-12-28T16:11:40.585Z,62.11
2022-12-28T16:14:09.094Z,61.81
2022-12-28T16:16:38.708Z,61.72
2022-12-28T16:19:07.208Z,62.42
2022-12-28T16:21:34.687Z,62.09
2022-12-28T16:24:01.324Z,62.58
2022-12-28T16:26:28.454Z,62.55
2022-12-28T16:28:55.652Z,62.80
2022-12-28T16:31:36.850Z,62.87
2022-12-28T16:34:15.649Z,62.80
2022-12-28T16:36:45.755Z,63.10
2022-12-28T16:39:15.221Z,62.77
2022-12-28T16:41:42.236Z,62.79
2022-12-28T16:44:18.388Z,63.02
2022-12-28T16:46:45.442Z,63.04
2022-12-28T16:49:12.397Z,63.21
2022-12-28T16:51:44.278Z,63.53
2022-12-28T16:54:22.203Z,63.60
2022-12-28T16:56:50.000Z,63.46
2022-12-28T16:59:21.933Z,63.48
2022-12-28T17:01:48.917Z,63.32
2022-12-28T17:04:15.926Z,63.65
2022-12-28T17:06:43.614Z,63.50
2022-12-28T17:09:10.543Z,63.62
2022-12-28T17:11:37.384Z,63.83
2022-12-28T17:14:06.978Z,63.79
2022-12-28T17:16:34.469Z,64.09
2022-12-28T17:19:01.787Z,64.03
2022-12-28T17:21:30.580Z,64.39
2022-12-28T17:23:57.769Z,64.18
2022-12-28T17:26:25.135Z,64.69
2022-12-28T17:28:51.896Z,64.50
2022-12-28T17:31:22.439Z,65.01
2022-12-28T17:33:54.191Z,64.83
2022-12-28T17:36:21.708Z,64.79
2022-12-28T17:38:48.501Z,64.96
2022-12-28T17:41:21.937Z,65.21
2022-12-28T17:43:59.941Z,64.99
2022-12-28T17:46:29.619Z,64.78
2022-12-28T17:48:58.291Z,65.15
2022-12-28T17:51:26.723Z,65.23
2022-12-28T17:53:55.226Z,65.42
2022-12-28T17:56:21.955Z,65.49
2022-12-28T17:58:49.590Z,65.24
2022-12-28T18:01:16.430Z,65.42
2022-12-28T18:03:43.269Z,65.43
2022-12-28T18:06:10.230Z,65.27
2022-12-28T18:08:36.865Z,65.46
2022-12-28T18:11:03.838Z,66.16
2022-12-28T18:13:31.037Z,65.89
2022-12-28T18:15:57.949Z,65.98
2022-12-28T18:18:24.716Z,65.71
2022-12-28T18:21:03.618Z,65.90
2022-12-28T18:23:31.285Z,65.93
2022-12-28T18:26:08.824Z,66.20
2022-12-28T18:28:36.475Z,66.43
2022-12-28T18:31:04.505Z,66.36
2022-12-28T18:33:32.400Z,66.09
2022-12-28T18:36:01.643Z,66.36
2022-12-28T18:38:28.385Z,66.08
2022-12-28T18:40:57.227Z,66.38
2022-12-28T18:43:24.546Z,66.18
2022-12-28T18:45:56.016Z,66.18
2022-12-28T18:48:24.539Z,66.29
2022-12-28T18:51:00.586Z,66.30
2022-12-28T18:53:28.497Z,66.26
2022-12-28T18:56:03.524Z,66.39
2022-12-28T18:58:32.941Z,66.35
2022-12-28T19:01:06.413Z,66.48
2022-12-28T19:03:33.881Z,66.34
2022-12-28T19:06:04.244Z,66.32
2022-12-28T19:08:37.164Z,66.56
2022-12-28T19:11:04.573Z,66.56
2022-12-28T19:13:37.471Z,66.60
2022-12-28T19:16:06.282Z,66.40
2022-12-28T19:18:33.166Z,66.51
2022-12-28T19:21:32.920Z,66.59
2022-12-28T19:24:03.594Z,66.66
2022-12-28T19:26:31.993Z,66.49
2022-12-28T19:28:59.217Z,66.57
2022-12-28T19:31:26.040Z,66.65
2022-12-28T19:33:52.731Z,66.64
2022-12-28T19:36:19.351Z,67.15
2022-12-28T19:38:46.511Z,67.02
2022-12-28T19:41:14.934Z,66.86
2022-12-28T19:43:43.008Z,67.15
2022-12-28T19:46:15.737Z,66.97
2022-12-28T19:48:43.208Z,66.94
2022-12-28T19:51:11.611Z,67.26
2022-12-28T19:53:38.571Z,67.28
2022-12-28T19:56:13.077Z,67.22
2022-12-28T19:58:40.397Z,67.32
2022-12-28T20:01:09.534Z,67.17
2022-12-28T20:03:36.503Z,67.42
2022-12-28T20:06:18.411Z,67.49
2022-12-28T20:08:46.659Z,67.41
2022-12-28T20:11:13.468Z,67.15
2022-12-28T20:13:41.152Z,67.55
2022-12-28T20:16:09.372Z,67.62
2022-12-28T20:18:36.383Z,67.25
2022-12-28T20:21:21.834Z,67.34
2022-12-28T20:23:50.089Z,67.51
2022-12-28T20:26:18.082Z,67.38
2022-12-28T20:28:45.104Z,67.30
2022-12-28T20:31:13.921Z,67.63
2022-12-28T20:33:41.962Z,67.45
2022-12-28T20:36:14.849Z,67.53
2022-12-28T20:38:42.197Z,67.93
2022-12-28T20:41:31.876Z,67.71
2022-12-28T20:43:59.826Z,67.71
2022-12-28T20:46:27.167Z,67.84
2022-12-28T20:48:54.299Z,67.83
2022-12-28T20:51:21.557Z,67.72
2022-12-28T20:53:48.235Z,68.00
2022-12-28T20:56:14.819Z,68.24
2022-12-28T20:58:41.552Z,68.37
2022-12-28T21:01:11.191Z,68.11
2022-12-28T21:03:38.559Z,68.37
2022-12-28T21:06:05.845Z,68.38
2022-12-28T21:08:33.194Z,68.34
2022-12-28T21:11:00.377Z,68.92
2022-12-28T21:13:27.919Z,68.75
2022-12-28T21:15:54.664Z,68.44
2022-12-28T21:18:22.039Z,68.77
2022-12-28T21:20:51.247Z,68.54
2022-12-28T21:23:18.193Z,68.36
2022-12-28T21:25:45.247Z,68.60
2022-12-28T21:28:12.239Z,68.62
2022-12-28T21:30:39.060Z,68.42
2022-12-28T21:33:05.880Z,68.54
2022-12-28T21:35:34.700Z,68.60
2022-12-28T21:38:02.246Z,68.42
2022-12-28T21:40:28.985Z,68.63
2022-12-28T21:42:55.808Z,68.72
2022-12-28T21:45:22.483Z,68.58
2022-12-28T21:47:49.207Z,68.69
2022-12-28T21:50:15.995Z,68.91
2022-12-28T21:52:42.643Z,69.07
2022-12-28T21:55:28.132Z,69.09
2022-12-28T21:57:54.885Z,69.15
2022-12-28T22:00:40.695Z,69.02
2022-12-28T22:03:26.280Z,69.09
2022-12-28T22:06:05.080Z,69.33
2022-12-28T22:08:51.817Z,68.93
2022-12-28T22:11:37.932Z,69.08
2022-12-28T22:14:06.120Z,69.03
2022-12-28T22:16:34.461Z,69.12
2022-12-28T22:19:03.331Z,69.00
2022-12-28T22:21:30.878Z,69.08
2022-12-28T22:23:57.584Z,69.31
2022-12-28T22:26:24.421Z,69.30
2022-12-28T22:28:51.155Z,69.27
2022-12-28T22:31:17.803Z,69.30
2022-12-28T22:33:44.510Z,69.03
2022-12-28T22:36:15.637Z,68.95
2022-12-28T22:38:42.303Z,69.10
2022-12-28T22:41:09.267Z,68.92
2022-12-28T22:43:37.204Z,69.13
2022-12-28T22:46:11.921Z,69.07
2022-12-28T22:48:38.888Z,68.94
2022-12-28T22:51:07.959Z,69.04
2022-12-28T22:53:36.489Z,69.11
2022-12-28T22:56:07.089Z,69.30
2022-12-28T22:58:34.269Z,69.19
2022-12-28T23:01:15.710Z,69.29
2022-12-28T23:03:44.591Z,69.21
2022-12-28T23:06:12.990Z,69.13
2022-12-28T23:08:39.689Z,69.23
2022-12-28T23:11:30.445Z,69.05
2022-12-28T23:14:21.009Z,69.24
2022-12-28T23:16:48.620Z,69.18
2022-12-28T23:19:34.263Z,69.34
2022-12-28T23:22:21.713Z,69.44
2022-12-28T23:25:06.684Z,69.54
2022-12-28T23:27:36.841Z,69.14
2022-12-28T23:30:06.344Z,69.48
2022-12-28T23:32:33.100Z,69.40
2022-12-28T23:34:59.819Z,69.28
2022-12-28T23:37:26.807Z,69.46
2022-12-28T23:39:53.424Z,69.20
2022-12-28T23:42:20.052Z,69.50
2022-12-28T23:44:48.168Z,69.36
2022-12-28T23:47:16.785Z,69.61
2022-12-28T23:49:43.882Z,69.63
2022-12-28T23:52:11.059Z,69.73
2022-12-28T23:54:38.118Z,69.47
2022-12-28T23:57:05.350Z,69.59
2022-12-28T23:59:32.155Z,69.53
